createdAt,value
2023-08-07T00:00:50.022Z,98543.06
2023-08-07T00:03:19.999Z,98527.03
2023-08-07T00:05:48.744Z,98522.41
2023-08-07T00:08:18.390Z,98517.50
2023-08-07T00:10:46.725Z,98500.94
2023-08-07T00:13:14.884Z,98504.13
2023-08-07T00:15:43.082Z,98508.44
2023-08-07T00:18:11.394Z,98496.22
2023-08-07T00:20:44.371Z,98487.50
2023-08-07T00:23:12.490Z,98470.69
2023-08-07T00:25:42.024Z,98468.47
2023-08-07T00:28:10.333Z,98473.56
2023-08-07T00:30:38.526Z,98465.94
2023-08-07T00:33:06.659Z,98459.13
2023-08-07T00:35:34.968Z,98459.63
2023-08-07T00:38:03.314Z,98448.50
2023-08-07T00:40:38.795Z,98435.44
2023-08-07T00:43:08.992Z,98417.44
2023-08-07T00:45:45.723Z,98394.66
2023-08-07T00:48:15.334Z,98409.81
2023-08-07T00:50:48.843Z,98414.13
2023-08-07T00:53:20.075Z,98405.09
2023-08-07T00:55:48.967Z,98395.06
2023-08-07T00:58:18.825Z,98396.69
2023-08-07T01:00:49.676Z,98397.19
2023-08-07T01:03:18.036Z,98397.19
2023-08-07T01:05:46.405Z,98403.06
2023-08-07T01:08:16.790Z,98397.66
2023-08-07T01:11:01.431Z,98408.50
2023-08-07T01:13:36.570Z,98403.06
2023-08-07T01:16:13.870Z,98398.94
2023-08-07T01:18:44.405Z,98395.13
2023-08-07T01:21:21.009Z,98399.75
2023-08-07T01:23:51.045Z,98401.34
2023-08-07T01:26:22.003Z,98394.84
2023-08-07T01:29:07.998Z,98385.91
2023-08-07T01:31:38.866Z,98360.19
2023-08-07T01:34:10.585Z,98365.75
2023-08-07T01:36:41.657Z,98350.59
2023-08-07T01:39:12.573Z,98382.31
2023-08-07T01:41:41.708Z,98397.78
2023-08-07T01:44:10.250Z,98392.34
2023-08-07T01:46:38.887Z,98404.91
2023-08-07T01:49:08.196Z,98416.03
2023-08-07T01:51:36.443Z,98416.34
2023-08-07T01:54:04.673Z,98390.84
2023-08-07T01:56:34.516Z,98384.94
2023-08-07T01:59:05.602Z,98381.41
2023-08-07T02:01:39.229Z,98378.72
2023-08-07T02:04:08.330Z,98369.81
2023-08-07T02:06:36.615Z,98344.91
2023-08-07T02:09:05.325Z,98323.25
2023-08-07T02:11:37.060Z,98350.66
2023-08-07T02:14:05.351Z,98344.13
2023-08-07T02:16:34.207Z,98345.41
2023-08-07T02:19:02.606Z,98351.63
2023-08-07T02:21:30.896Z,98364.88
2023-08-07T02:24:00.924Z,98362.44
2023-08-07T02:26:29.333Z,98357.84
2023-08-07T02:29:01.440Z,98341.09
2023-08-07T02:31:31.781Z,98354.66
2023-08-07T02:34:02.164Z,98330.28
2023-08-07T02:36:30.400Z,98325.16
2023-08-07T02:38:58.561Z,98335.34
2023-08-07T02:41:26.752Z,98333.94
2023-08-07T02:43:55.021Z,98338.25
2023-08-07T02:46:24.651Z,98344.47
2023-08-07T02:48:54.008Z,98333.66
2023-08-07T02:51:25.881Z,98344.69
2023-08-07T02:53:54.044Z,98340.88
2023-08-07T02:56:22.257Z,98326.81
2023-08-07T02:58:50.612Z,98323.66
2023-08-07T03:01:19.043Z,98338.34
2023-08-07T03:03:53.431Z,98321.28
2023-08-07T03:06:21.729Z,98326.22
2023-08-07T03:08:50.073Z,98317.59
2023-08-07T03:11:18.364Z,98308.34
2023-08-07T03:13:48.760Z,98313.97
2023-08-07T03:16:17.192Z,98315.88
2023-08-07T03:18:47.049Z,98295.00
2023-08-07T03:21:16.680Z,98307.91
2023-08-07T03:23:44.989Z,98294.84
2023-08-07T03:28:48.298Z,98300.75
2023-08-07T03:31:16.950Z,98298.56
2023-08-07T03:33:45.351Z,98287.91
2023-08-07T03:36:13.508Z,98295.59
2023-08-07T03:38:43.384Z,98290.03
2023-08-07T03:41:12.829Z,98275.53
2023-08-07T03:43:41.137Z,98269.69
2023-08-07T03:46:09.522Z,98276.09
2023-08-07T03:48:39.216Z,98276.91
2023-08-07T03:51:10.501Z,98277.38
2023-08-07T03:53:39.602Z,98267.31
2023-08-07T03:56:09.483Z,98264.66
2023-08-07T03:58:44.271Z,98271.19
2023-08-07T04:01:13.122Z,98249.50
2023-08-07T04:03:44.097Z,98256.59
2023-08-07T04:06:17.245Z,98249.84
2023-08-07T04:08:49.999Z,98263.91
2023-08-07T04:11:19.764Z,98258.50
2023-08-07T04:13:48.042Z,98267.94
2023-08-07T04:16:16.949Z,98269.72
2023-08-07T04:18:45.271Z,98260.91
2023-08-07T04:21:13.659Z,98266.84
2023-08-07T04:23:55.748Z,98273.06
2023-08-07T04:26:28.920Z,98282.84
2023-08-07T04:29:00.444Z,98273.09
2023-08-07T04:31:35.481Z,98274.84
2023-08-07T04:34:03.962Z,98282.69
2023-08-07T04:36:32.275Z,98291.31
2023-08-07T04:39:00.608Z,98285.53
2023-08-07T04:41:33.867Z,98289.25
2023-08-07T04:44:02.218Z,98280.16
2023-08-07T04:46:30.687Z,98291.97
2023-08-07T04:49:02.223Z,98284.97
2023-08-07T04:51:32.473Z,98271.22
2023-08-07T04:54:03.798Z,98269.00
2023-08-07T04:56:38.122Z,98268.81
2023-08-07T04:59:09.533Z,98268.81
2023-08-07T05:01:38.045Z,98263.69
2023-08-07T05:04:06.821Z,98265.31
2023-08-07T05:06:35.516Z,98263.38
2023-08-07T05:09:05.434Z,98252.84
2023-08-07T05:11:38.158Z,98248.53
2023-08-07T05:14:06.465Z,98253.97
2023-08-07T05:16:34.883Z,98243.09
2023-08-07T05:19:03.325Z,98247.72
2023-08-07T05:21:31.589Z,98243.41
2023-08-07T05:23:59.841Z,98231.44
2023-08-07T05:26:29.897Z,98243.59
2023-08-07T05:29:02.755Z,98254.94
2023-08-07T05:31:32.087Z,98231.31
2023-08-07T05:34:00.275Z,98215.19
2023-08-07T05:36:28.571Z,98216.31
2023-08-07T05:38:56.823Z,98207.81
2023-08-07T05:41:25.220Z,98207.19
2023-08-07T05:43:53.682Z,98213.59
2023-08-07T05:46:25.587Z,98211.06
2023-08-07T05:48:55.284Z,98193.00
2023-08-07T05:51:23.486Z,98194.28
2023-08-07T05:53:51.909Z,98209.47
2023-08-07T05:56:23.136Z,98211.06
2023-08-07T05:58:51.367Z,98207.41
2023-08-07T06:01:21.722Z,98215.25
2023-08-07T06:03:52.203Z,98214.09
2023-08-07T06:06:20.421Z,98203.25
2023-08-07T06:08:49.102Z,98211.06
2023-08-07T06:11:17.375Z,98216.50
2023-08-07T06:13:45.679Z,98205.63
2023-08-07T06:16:14.488Z,98198.94
2023-08-07T06:18:42.902Z,98209.16
2023-08-07T06:21:12.964Z,98202.91
2023-08-07T06:23:41.233Z,98213.47
2023-08-07T06:26:11.708Z,98201.81
2023-08-07T06:28:40.278Z,98197.66
2023-08-07T06:31:31.641Z,98196.84
2023-08-07T06:34:01.165Z,98199.75
2023-08-07T06:36:30.856Z,98190.47
2023-08-07T06:38:59.117Z,98187.13
2023-08-07T06:41:27.686Z,98192.56
2023-08-07T06:43:55.820Z,98193.38
2023-08-07T06:46:28.179Z,98171.97
2023-08-07T06:48:58.934Z,98166.22
2023-08-07T06:51:27.931Z,98169.38
2023-08-07T06:53:57.701Z,98170.19
2023-08-07T06:56:26.137Z,98165.88
2023-08-07T06:58:54.471Z,98164.28
2023-08-07T07:01:22.852Z,98168.44
2023-08-07T07:03:54.240Z,98172.09
2023-08-07T07:06:26.909Z,98167.63
2023-08-07T07:08:58.065Z,98175.78
2023-08-07T07:11:27.865Z,98171.63
2023-08-07T07:13:56.286Z,98178.66
2023-08-07T07:16:24.889Z,98173.53
2023-08-07T07:18:53.601Z,98174.81
2023-08-07T07:21:21.927Z,98172.59
2023-08-07T07:23:50.427Z,98168.09
2023-08-07T07:26:18.866Z,98171.13
2023-08-07T07:28:48.553Z,98167.59
2023-08-07T07:31:16.979Z,98182.00
2023-08-07T07:33:47.923Z,98181.19
2023-08-07T07:36:20.229Z,98177.34
2023-08-07T07:38:49.473Z,98172.72
2023-08-07T07:41:18.771Z,98159.28
2023-08-07T07:43:51.824Z,98147.75
2023-08-07T07:46:20.214Z,98152.63
2023-08-07T07:48:54.274Z,98156.91
2023-08-07T07:51:24.579Z,98168.09
2023-08-07T07:54:12.370Z,98161.22
2023-08-07T07:56:41.267Z,98167.63
2023-08-07T07:59:11.002Z,98170.50
2023-08-07T08:01:44.660Z,98176.28
2023-08-07T08:04:12.857Z,98172.75
2023-08-07T08:06:42.975Z,98169.22
2023-08-07T08:09:11.380Z,98167.31
2023-08-07T08:11:45.904Z,98160.91
2023-08-07T08:14:15.611Z,98151.88
2023-08-07T08:16:44.026Z,98157.97
2023-08-07T08:19:12.328Z,98161.09
2023-08-07T08:21:41.844Z,98167.97
2023-08-07T08:24:19.737Z,98168.03
2023-08-07T08:26:48.147Z,98160.84
2023-08-07T08:29:18.245Z,98167.34
2023-08-07T08:31:46.481Z,98166.13
2023-08-07T08:34:17.382Z,98174.09
2023-08-07T08:36:45.844Z,98174.00
2023-08-07T08:39:14.033Z,98159.50
2023-08-07T08:41:48.438Z,98163.66
2023-08-07T08:44:19.785Z,98183.81
2023-08-07T08:46:56.150Z,98175.78
2023-08-07T08:49:35.041Z,98166.94
2023-08-07T08:52:04.752Z,98168.97
2023-08-07T08:54:33.475Z,98163.84
2023-08-07T08:57:02.245Z,98168.53
2023-08-07T08:59:35.937Z,98174.44
2023-08-07T09:02:07.508Z,98179.53
2023-08-07T09:04:50.068Z,98167.91
2023-08-07T09:07:21.814Z,98158.66
2023-08-07T09:09:53.420Z,98151.38
2023-08-07T09:12:28.956Z,98159.06
2023-08-07T09:15:00.259Z,98169.31
2023-08-07T09:17:33.981Z,98152.63
2023-08-07T09:20:03.332Z,98138.31
2023-08-07T09:22:32.981Z,98146.78
2023-08-07T09:25:01.825Z,98130.75
2023-08-07T09:27:30.630Z,98128.47
2023-08-07T09:30:00.585Z,98126.28
2023-08-07T09:32:29.606Z,98124.78
2023-08-07T09:34:57.980Z,98123.91
2023-08-07T09:37:26.450Z,98118.28
2023-08-07T09:39:54.872Z,98114.06
2023-08-07T09:42:23.213Z,98109.19
2023-08-07T09:44:51.812Z,98106.44
2023-08-07T09:47:21.789Z,98107.16
2023-08-07T09:49:50.876Z,98107.06
2023-08-07T09:52:19.143Z,98107.50
2023-08-07T09:54:47.496Z,98112.00
2023-08-07T09:57:16.382Z,98113.66
2023-08-07T09:59:44.803Z,98116.16
2023-08-07T10:02:17.046Z,98107.78
2023-08-07T10:04:48.838Z,98105.81
2023-08-07T10:07:19.323Z,98097.81
2023-08-07T10:09:49.134Z,98092.75
2023-08-07T10:12:19.530Z,98091.56
2023-08-07T10:14:48.684Z,98075.19
2023-08-07T10:17:17.388Z,98072.38
2023-08-07T10:19:49.459Z,98093.50
2023-08-07T10:22:18.457Z,98102.34
2023-08-07T10:24:51.895Z,98099.31
2023-08-07T10:27:22.802Z,98105.16
2023-08-07T10:29:53.032Z,98111.88
2023-08-07T10:32:24.469Z,98106.25
2023-08-07T10:34:54.556Z,98116.06
2023-08-07T10:37:36.064Z,98107.84
2023-08-07T10:40:06.016Z,98110.50
2023-08-07T10:42:53.327Z,98117.31
2023-08-07T10:45:23.583Z,98115.28
2023-08-07T10:48:08.503Z,98137.00
2023-08-07T10:50:53.452Z,98143.31
2023-08-07T10:53:23.048Z,98133.44
2023-08-07T10:55:51.580Z,98126.19
2023-08-07T10:58:30.700Z,98122.22
2023-08-07T11:01:20.832Z,98115.25
2023-08-07T11:03:52.522Z,98099.69
2023-08-07T11:06:25.694Z,98108.56
2023-08-07T11:08:54.505Z,98121.25
2023-08-07T11:11:23.102Z,98122.84
2023-08-07T11:13:51.285Z,98109.50
2023-08-07T11:16:22.380Z,98112.59
2023-08-07T11:18:51.896Z,98114.97
2023-08-07T11:21:24.991Z,98113.19
2023-08-07T11:23:56.165Z,98107.50
2023-08-07T11:26:25.955Z,98109.22
2023-08-07T11:28:54.675Z,98100.19
2023-08-07T11:31:25.311Z,98096.31
2023-08-07T11:33:54.161Z,98099.50
2023-08-07T11:36:25.077Z,98101.41
2023-08-07T11:38:53.354Z,98116.03
2023-08-07T11:41:22.166Z,98119.91
2023-08-07T11:43:50.484Z,98117.63
2023-08-07T11:46:19.181Z,98127.00
2023-08-07T11:48:47.494Z,98129.16
2023-08-07T11:51:16.202Z,98113.03
2023-08-07T11:53:46.564Z,98108.59
2023-08-07T11:56:16.789Z,98103.16
2023-08-07T11:58:48.098Z,98086.94
2023-08-07T12:01:22.332Z,98080.66
2023-08-07T12:03:56.435Z,98076.06
2023-08-07T12:06:26.823Z,98072.59
2023-08-07T12:08:59.161Z,98081.44
2023-08-07T12:11:32.579Z,98086.06
2023-08-07T12:14:03.090Z,98085.41
2023-08-07T12:16:35.537Z,98083.56
2023-08-07T12:19:05.589Z,98095.38
2023-08-07T12:21:36.065Z,98098.63
2023-08-07T12:24:08.859Z,98083.50
2023-08-07T12:26:37.318Z,98093.78
2023-08-07T12:29:05.534Z,98112.25
2023-08-07T12:31:42.392Z,98103.84
2023-08-07T12:36:43.121Z,98102.13
2023-08-07T12:39:12.690Z,98106.09
2023-08-07T12:44:13.827Z,98114.19
2023-08-07T12:46:43.848Z,98134.88
2023-08-07T12:49:12.263Z,98135.72
2023-08-07T12:51:40.895Z,98150.19
2023-08-07T12:54:09.115Z,98140.97
2023-08-07T12:56:38.657Z,98153.94
2023-08-07T12:59:06.829Z,98147.19
2023-08-07T13:01:35.067Z,98146.03
2023-08-07T13:04:05.782Z,98146.38
2023-08-07T13:06:34.167Z,98131.03
2023-08-07T13:09:02.868Z,98134.56
2023-08-07T13:11:31.152Z,98125.38
2023-08-07T13:14:00.946Z,98115.25
2023-08-07T13:16:35.022Z,98124.25
2023-08-07T13:19:05.513Z,98122.88
2023-08-07T13:21:34.235Z,98127.44
2023-08-07T13:24:02.418Z,98135.97
2023-08-07T13:26:32.596Z,98145.03
2023-08-07T13:29:02.202Z,98148.69
2023-08-07T13:31:30.642Z,98155.88
2023-08-07T13:33:58.932Z,98162.13
2023-08-07T13:36:30.328Z,98139.59
2023-08-07T13:38:59.310Z,98148.16
2023-08-07T13:41:30.733Z,98135.28
2023-08-07T13:43:58.935Z,98128.44
2023-08-07T13:46:29.434Z,98119.13
2023-08-07T13:49:00.013Z,98111.13
2023-08-07T13:51:32.373Z,98102.31
2023-08-07T13:54:00.695Z,98090.34
2023-08-07T13:56:49.350Z,98085.22
2023-08-07T13:59:17.752Z,98089.22
2023-08-07T14:01:47.856Z,98066.25
2023-08-07T14:04:17.283Z,98064.72
2023-08-07T14:06:45.772Z,98068.00
2023-08-07T14:09:15.175Z,98072.78
2023-08-07T14:11:43.442Z,98077.56
2023-08-07T14:14:11.867Z,98065.47
2023-08-07T14:16:40.569Z,98065.41
2023-08-07T14:19:10.262Z,98063.56
2023-08-07T14:21:40.827Z,98071.06
2023-08-07T14:24:09.138Z,98082.19
2023-08-07T14:26:37.326Z,98098.25
2023-08-07T14:29:05.549Z,98113.19
2023-08-07T14:31:33.799Z,98135.72
2023-08-07T14:34:02.260Z,98145.06
2023-08-07T14:36:32.007Z,98141.56
2023-08-07T14:39:00.355Z,98132.34
2023-08-07T14:41:28.585Z,98142.63
2023-08-07T14:43:56.784Z,98159.25
2023-08-07T14:46:25.622Z,98139.59
2023-08-07T14:48:55.564Z,98138.69
2023-08-07T14:51:23.922Z,98150.97
2023-08-07T14:53:54.890Z,98153.78
2023-08-07T14:56:23.113Z,98158.81
2023-08-07T14:58:52.360Z,98160.38
2023-08-07T15:01:20.611Z,98142.88
2023-08-07T15:03:51.549Z,98130.56
2023-08-07T15:06:19.778Z,98129.91
2023-08-07T15:08:48.055Z,98140.06
2023-08-07T15:11:18.654Z,98131.75
2023-08-07T15:13:47.026Z,98145.63
2023-08-07T15:16:16.060Z,98142.81
2023-08-07T15:18:44.264Z,98128.00
2023-08-07T15:21:13.158Z,98112.06
2023-08-07T15:23:41.390Z,98121.19
2023-08-07T15:26:09.782Z,98104.47
2023-08-07T15:28:40.500Z,98093.56
2023-08-07T15:31:08.843Z,98087.41
2023-08-07T15:33:37.044Z,98099.22
2023-08-07T15:36:06.075Z,98105.00
2023-08-07T15:38:39.665Z,98115.53
2023-08-07T15:41:07.877Z,98122.44
2023-08-07T15:43:36.062Z,98125.75
2023-08-07T15:46:05.939Z,98116.88
2023-08-07T15:51:17.324Z,98112.38
2023-08-07T15:53:46.158Z,98120.19
2023-08-07T15:56:17.035Z,98112.94
2023-08-07T15:58:45.168Z,98116.53
2023-08-07T16:01:14.919Z,98099.97
2023-08-07T16:03:43.198Z,98112.41
2023-08-07T16:06:11.348Z,98134.59
2023-08-07T16:08:42.588Z,98149.41
2023-08-07T16:11:11.054Z,98144.56
2023-08-07T16:13:39.344Z,98131.03
2023-08-07T16:16:07.743Z,98120.28
2023-08-07T16:18:38.019Z,98116.47
2023-08-07T16:21:06.301Z,98132.13
2023-08-07T16:23:34.779Z,98135.97
2023-08-07T16:26:03.165Z,98148.56
2023-08-07T16:28:31.441Z,98140.38
2023-08-07T16:30:59.861Z,98135.44
2023-08-07T16:33:30.047Z,98122.72
2023-08-07T16:35:59.761Z,98109.88
2023-08-07T16:38:28.406Z,98103.63
2023-08-07T16:40:56.787Z,98093.28
2023-08-07T16:43:25.001Z,98104.28
2023-08-07T16:45:53.313Z,98092.72
2023-08-07T16:48:24.013Z,98085.28
2023-08-07T16:51:12.864Z,98082.94
2023-08-07T16:53:45.859Z,98080.00
2023-08-07T16:56:15.809Z,98068.69
2023-08-07T16:58:49.872Z,98055.56
2023-08-07T17:01:18.321Z,98056.59
2023-08-07T17:03:46.954Z,98056.34
2023-08-07T17:06:15.335Z,98050.75
2023-08-07T17:08:50.762Z,98060.50
2023-08-07T17:11:20.734Z,98075.25
2023-08-07T17:13:49.184Z,98057.16
2023-08-07T17:16:20.075Z,98065.13
2023-08-07T17:18:49.022Z,98064.66
2023-08-07T17:21:17.701Z,98062.91
2023-08-07T17:23:47.448Z,98066.25
2023-08-07T17:26:16.178Z,98062.06
2023-08-07T17:28:44.514Z,98054.28
2023-08-07T17:31:14.383Z,98064.00
2023-08-07T17:33:42.680Z,98061.97
2023-08-07T17:36:10.925Z,98063.78
2023-08-07T17:38:44.269Z,98068.63
2023-08-07T17:41:14.258Z,98067.94
2023-08-07T17:43:42.436Z,98073.03
2023-08-07T17:46:10.722Z,98066.03
2023-08-07T17:48:45.547Z,98046.75
2023-08-07T17:51:14.574Z,98039.97
2023-08-07T17:53:43.064Z,98040.34
2023-08-07T17:56:15.147Z,98040.19
2023-08-07T17:58:44.764Z,98039.69
2023-08-07T18:01:14.940Z,98044.19
2023-08-07T18:03:43.177Z,98049.97
2023-08-07T18:06:11.413Z,98042.59
2023-08-07T18:08:39.688Z,98037.03
2023-08-07T18:11:08.878Z,98035.59
2023-08-07T18:13:37.090Z,98030.53
2023-08-07T18:16:06.762Z,98025.75
2023-08-07T18:18:35.457Z,98013.16
2023-08-07T18:21:04.055Z,98002.97
2023-08-07T18:23:32.828Z,97990.84
2023-08-07T18:26:01.246Z,97984.78
2023-08-07T18:28:38.127Z,97985.75
2023-08-07T18:31:08.829Z,97983.06
2023-08-07T18:33:37.328Z,97958.97
2023-08-07T18:36:05.898Z,97964.25
2023-08-07T18:38:37.041Z,97960.75
2023-08-07T18:41:07.049Z,97960.56
2023-08-07T18:43:35.222Z,97956.59
2023-08-07T18:46:03.515Z,97962.16
2023-08-07T18:48:34.867Z,97959.59
2023-08-07T18:51:03.918Z,97955.78
2023-08-07T18:53:32.585Z,97968.38
2023-08-07T18:56:00.918Z,97960.84
2023-08-07T18:58:29.360Z,97976.81
2023-08-07T19:00:57.720Z,97985.75
2023-08-07T19:03:26.118Z,97982.56
2023-08-07T19:05:55.796Z,97972.19
2023-08-07T19:08:24.231Z,97969.31
2023-08-07T19:10:54.016Z,97957.97
2023-08-07T19:13:25.291Z,97965.50
2023-08-07T19:15:53.488Z,97963.72
2023-08-07T19:18:21.691Z,97962.44
2023-08-07T19:20:49.893Z,97967.50
2023-08-07T19:23:19.987Z,97982.84
2023-08-07T19:25:48.257Z,97983.78
2023-08-07T19:28:20.889Z,97974.22
2023-08-07T19:30:56.222Z,97968.44
2023-08-07T19:33:28.510Z,97966.22
2023-08-07T19:35:58.112Z,97970.84
2023-08-07T19:38:27.713Z,97979.28
2023-08-07T19:40:56.356Z,97989.63
2023-08-07T19:43:29.851Z,97983.56
2023-08-07T19:45:59.008Z,97976.84
2023-08-07T19:48:28.357Z,97976.06
2023-08-07T19:50:57.141Z,97978.25
2023-08-07T19:53:25.411Z,97963.09
2023-08-07T19:55:54.936Z,97962.63
2023-08-07T19:58:23.697Z,97964.03
2023-08-07T20:00:55.237Z,97959.88
2023-08-07T20:03:23.541Z,97952.38
2023-08-07T20:05:51.843Z,97957.63
2023-08-07T20:08:20.115Z,97964.94
2023-08-07T20:10:48.570Z,97949.03
2023-08-07T20:13:18.527Z,97943.13
2023-08-07T20:15:46.777Z,97930.84
2023-08-07T20:18:15.062Z,97930.66
2023-08-07T20:20:43.393Z,97932.09
2023-08-07T20:23:11.727Z,97919.97
2023-08-07T20:25:39.935Z,97930.31
2023-08-07T20:28:08.681Z,97919.50
2023-08-07T20:30:40.861Z,97912.47
2023-08-07T20:33:09.071Z,97901.34
2023-08-07T20:35:37.314Z,97906.13
2023-08-07T20:38:05.965Z,97909.66
2023-08-07T20:40:34.267Z,97901.03
2023-08-07T20:43:02.487Z,97893.22
2023-08-07T20:45:33.710Z,97891.13
2023-08-07T20:48:05.642Z,97890.66
2023-08-07T20:50:33.918Z,97891.59
2023-08-07T20:53:02.224Z,97892.06
2023-08-07T20:55:30.430Z,97888.56
2023-08-07T20:57:58.739Z,97889.50
2023-08-07T21:00:27.375Z,97887.72
2023-08-07T21:02:57.619Z,97866.72
2023-08-07T21:05:29.337Z,97858.28
2023-08-07T21:07:57.605Z,97854.78
2023-08-07T21:10:26.421Z,97848.88
2023-08-07T21:12:54.634Z,97849.66
2023-08-07T21:15:25.903Z,97851.91
2023-08-07T21:17:54.273Z,97843.94
2023-08-07T21:20:25.679Z,97847.88
2023-08-07T21:22:55.647Z,97845.50
2023-08-07T21:25:24.246Z,97840.09
2023-08-07T21:27:52.490Z,97828.59
2023-08-07T21:30:20.772Z,97820.00
2023-08-07T21:32:49.048Z,97825.22
2023-08-07T21:35:17.234Z,97817.44
2023-08-07T21:37:46.072Z,97801.84
2023-08-07T21:40:15.875Z,97808.75
2023-08-07T21:42:47.101Z,97800.31
2023-08-07T21:45:15.412Z,97797.53
2023-08-07T21:47:45.629Z,97798.69
2023-08-07T21:50:16.579Z,97790.06
2023-08-07T21:52:45.514Z,97792.28
2023-08-07T21:55:15.183Z,97800.88
2023-08-07T21:57:43.409Z,97796.09
2023-08-07T22:00:15.467Z,97797.81
2023-08-07T22:02:44.507Z,97802.25
2023-08-07T22:05:13.003Z,97802.06
2023-08-07T22:07:41.587Z,97798.28
2023-08-07T22:10:11.657Z,97800.03
2023-08-07T22:12:41.452Z,97793.50
2023-08-07T22:15:12.226Z,97792.25
2023-08-07T22:17:41.257Z,97792.88
2023-08-07T22:20:12.054Z,97792.19
2023-08-07T22:22:41.832Z,97790.88
2023-08-07T22:25:11.073Z,97784.84
2023-08-07T22:27:40.638Z,97776.03
2023-08-07T22:30:10.058Z,97784.47
2023-08-07T22:32:38.609Z,97786.19
2023-08-07T22:35:07.829Z,97778.81
2023-08-07T22:37:36.577Z,97781.81
2023-08-07T22:40:05.190Z,97774.78
2023-08-07T22:42:33.683Z,97768.88
2023-08-07T22:45:06.048Z,97773.97
2023-08-07T22:47:34.577Z,97778.59
2023-08-07T22:50:04.097Z,97768.56
2023-08-07T22:52:32.444Z,97766.47
2023-08-07T22:55:00.797Z,97760.59
2023-08-07T22:57:28.922Z,97761.88
2023-08-07T22:59:57.639Z,97758.38
2023-08-07T23:02:27.319Z,97757.59
2023-08-07T23:04:56.688Z,97739.91
2023-08-07T23:07:24.845Z,97747.53
2023-08-07T23:09:52.965Z,97749.94
2023-08-07T23:12:21.498Z,97754.53
2023-08-07T23:14:49.900Z,97753.44
2023-08-07T23:17:20.965Z,97743.72
2023-08-07T23:19:50.805Z,97735.31
2023-08-07T23:22:19.011Z,97728.66
2023-08-07T23:24:47.228Z,97729.31
2023-08-07T23:27:15.860Z,97729.72
2023-08-07T23:29:44.829Z,97718.13
2023-08-07T23:32:16.222Z,97722.47
2023-08-07T23:34:44.421Z,97721.38
2023-08-07T23:37:19.239Z,97719.31
2023-08-07T23:39:48.596Z,97719.47
2023-08-07T23:42:18.687Z,97708.16
2023-08-07T23:44:49.109Z,97706.72
2023-08-07T23:47:17.337Z,97701.50
2023-08-07T23:49:45.997Z,97696.09
2023-08-07T23:52:15.900Z,97688.31
2023-08-07T23:54:44.303Z,97686.97
2023-08-07T23:57:12.574Z,97696.03
2023-08-07T23:59:40.866Z,97696.38
